sensor_id;sensor_type;location;lat;lon;timestamp;temperature;humidity
15241;DHT22;7723;52.170;9.978;2023-05-10T00:02:13;12.10;1.00
15241;DHT22;7723;52.170;9.978;2023-05-10T00:04:40;12.10;1.00
15241;DHT22;7723;52.170;9.978;2023-05-10T00:07:07;12.10;1.00
15241;DHT22;7723;52.170;9.978;2023-05-10T00:09:35;12.00;1.00
15241;DHT22;7723;52.170;9.978;2023-05-10T00:12:02;12.00;1.00
15241;DHT22;7723;52.170;9.978;2023-05-10T00:14:29;11.90;1.00
15241;DHT22;7723;52.170;9.978;2023-05-10T00:16:57;11.90;1.00
15241;DHT22;7723;52.170;9.978;2023-05-10T00:19:24;11.90;1.00
15241;DHT22;7723;52.170;9.978;2023-05-10T00:21:51;11.80;1.00
15241;DHT22;7723;52.170;9.978;2023-05-10T00:24:18;11.80;1.00
15241;DHT22;7723;52.170;9.978;2023-05-10T00:26:47;11.80;1.00
15241;DHT22;7723;52.170;9.978;2023-05-10T00:29:14;11.80;1.00
15241;DHT22;7723;52.170;9.978;2023-05-10T00:31:41;11.80;1.00
15241;DHT22;7723;52.170;9.978;2023-05-10T00:34:08;11.70;1.00
15241;DHT22;7723;52.170;9.978;2023-05-10T00:36:35;11.70;1.00
15241;DHT22;7723;52.170;9.978;2023-05-10T00:39:02;11.80;1.00
15241;DHT22;7723;52.170;9.978;2023-05-10T00:41:30;11.80;1.00
15241;DHT22;7723;52.170;9.978;2023-05-10T00:43:59;11.80;1.00
15241;DHT22;7723;52.170;9.978;2023-05-10T00:46:27;11.80;1.00
15241;DHT22;7723;52.170;9.978;2023-05-10T00:48:55;11.80;1.00
15241;DHT22;7723;52.170;9.978;2023-05-10T00:51:23;11.80;1.00
15241;DHT22;7723;52.170;9.978;2023-05-10T00:53:51;11.80;1.00
15241;DHT22;7723;52.170;9.978;2023-05-10T00:56:18;11.80;1.00
15241;DHT22;7723;52.170;9.978;2023-05-10T00:58:48;11.80;1.00
15241;DHT22;7723;52.170;9.978;2023-05-10T01:01:17;11.90;1.00
15241;DHT22;7723;52.170;9.978;2023-05-10T01:03:44;11.90;1.00
15241;DHT22;7723;52.170;9.978;2023-05-10T01:06:12;12.00;1.00
15241;DHT22;7723;52.170;9.978;2023-05-10T01:08:40;12.00;1.00
15241;DHT22;7723;52.170;9.978;2023-05-10T01:11:07;12.10;1.00
15241;DHT22;7723;52.170;9.978;2023-05-10T01:13:38;12.00;1.00
15241;DHT22;7723;52.170;9.978;2023-05-10T01:16:07;11.90;1.00
15241;DHT22;7723;52.170;9.978;2023-05-10T01:18:39;11.90;1.00
15241;DHT22;7723;52.170;9.978;2023-05-10T01:21:17;11.80;1.00
15241;DHT22;7723;52.170;9.978;2023-05-10T01:24:03;11.70;1.00
15241;DHT22;7723;52.170;9.978;2023-05-10T01:29:59;11.60;1.00
15241;DHT22;7723;52.170;9.978;2023-05-10T01:32:34;11.50;1.00
15241;DHT22;7723;52.170;9.978;2023-05-10T01:35:06;11.50;1.00
15241;DHT22;7723;52.170;9.978;2023-05-10T01:37:41;11.50;1.00
15241;DHT22;7723;52.170;9.978;2023-05-10T01:40:15;11.40;1.00
15241;DHT22;7723;52.170;9.978;2023-05-10T01:42:49;11.30;1.00
15241;DHT22;7723;52.170;9.978;2023-05-10T01:45:22;11.20;1.00
15241;DHT22;7723;52.170;9.978;2023-05-10T01:47:58;11.30;1.00
15241;DHT22;7723;52.170;9.978;2023-05-10T01:50:30;11.20;1.00
15241;DHT22;7723;52.170;9.978;2023-05-10T01:53:00;11.20;1.00
15241;DHT22;7723;52.170;9.978;2023-05-10T01:55:30;11.10;1.00
15241;DHT22;7723;52.170;9.978;2023-05-10T01:58:03;11.00;1.00
15241;DHT22;7723;52.170;9.978;2023-05-10T02:00:32;11.00;1.00
15241;DHT22;7723;52.170;9.978;2023-05-10T02:03:05;11.10;1.00
15241;DHT22;7723;52.170;9.978;2023-05-10T02:05:33;11.10;1.00
15241;DHT22;7723;52.170;9.978;2023-05-10T02:08:05;11.10;1.00
15241;DHT22;7723;52.170;9.978;2023-05-10T02:10:33;11.20;1.00
15241;DHT22;7723;52.170;9.978;2023-05-10T02:13:02;11.10;1.00
15241;DHT22;7723;52.170;9.978;2023-05-10T02:15:30;11.20;1.00
15241;DHT22;7723;52.170;9.978;2023-05-10T02:17:59;11.20;1.00
15241;DHT22;7723;52.170;9.978;2023-05-10T02:20:29;11.20;1.00
15241;DHT22;7723;52.170;9.978;2023-05-10T02:22:58;11.20;1.00
15241;DHT22;7723;52.170;9.978;2023-05-10T02:25:27;11.30;1.00
15241;DHT22;7723;52.170;9.978;2023-05-10T02:27:56;11.30;1.00
15241;DHT22;7723;52.170;9.978;2023-05-10T02:30:24;11.20;1.00
15241;DHT22;7723;52.170;9.978;2023-05-10T02:32:52;11.30;1.00
15241;DHT22;7723;52.170;9.978;2023-05-10T02:35:19;11.30;1.00
15241;DHT22;7723;52.170;9.978;2023-05-10T02:37:48;11.30;1.00
15241;DHT22;7723;52.170;9.978;2023-05-10T02:40:17;11.30;1.00
15241;DHT22;7723;52.170;9.978;2023-05-10T02:42:47;11.30;1.00
15241;DHT22;7723;52.170;9.978;2023-05-10T02:45:18;11.30;1.00
15241;DHT22;7723;52.170;9.978;2023-05-10T02:47:46;11.30;1.00
15241;DHT22;7723;52.170;9.978;2023-05-10T02:50:13;11.30;1.00
15241;DHT22;7723;52.170;9.978;2023-05-10T02:52:44;11.40;1.00
15241;DHT22;7723;52.170;9.978;2023-05-10T02:55:16;11.40;13.80
15241;DHT22;7723;52.170;9.978;2023-05-10T02:57:50;11.30;3.40
15241;DHT22;7723;52.170;9.978;2023-05-10T03:00:19;11.40;8.30
15241;DHT22;7723;52.170;9.978;2023-05-10T03:02:46;11.40;25.20
15241;DHT22;7723;52.170;9.978;2023-05-10T03:05:13;11.40;28.10
15241;DHT22;7723;52.170;9.978;2023-05-10T03:07:40;11.40;64.90
15241;DHT22;7723;52.170;9.978;2023-05-10T03:10:08;11.40;35.50
15241;DHT22;7723;52.170;9.978;2023-05-10T03:12:56;11.50;64.10
15241;DHT22;7723;52.170;9.978;2023-05-10T03:15:33;11.50;99.90
15241;DHT22;7723;52.170;9.978;2023-05-10T03:18:06;11.50;99.90
15241;DHT22;7723;52.170;9.978;2023-05-10T03:20:36;11.50;99.90
15241;DHT22;7723;52.170;9.978;2023-05-10T03:23:12;11.50;99.90
15241;DHT22;7723;52.170;9.978;2023-05-10T03:25:41;11.40;99.90
15241;DHT22;7723;52.170;9.978;2023-05-10T03:28:11;11.50;99.90
15241;DHT22;7723;52.170;9.978;2023-05-10T03:30:39;11.50;99.90
15241;DHT22;7723;52.170;9.978;2023-05-10T03:33:07;11.50;99.90
15241;DHT22;7723;52.170;9.978;2023-05-10T03:35:34;11.60;99.90
15241;DHT22;7723;52.170;9.978;2023-05-10T03:38:01;11.50;99.90
15241;DHT22;7723;52.170;9.978;2023-05-10T03:40:29;11.40;99.90
15241;DHT22;7723;52.170;9.978;2023-05-10T03:42:57;11.40;99.90
15241;DHT22;7723;52.170;9.978;2023-05-10T03:45:26;11.50;99.90
15241;DHT22;7723;52.170;9.978;2023-05-10T03:47:53;11.50;99.90
15241;DHT22;7723;52.170;9.978;2023-05-10T03:50:21;11.50;99.90
15241;DHT22;7723;52.170;9.978;2023-05-10T03:52:48;11.50;99.90
15241;DHT22;7723;52.170;9.978;2023-05-10T03:55:15;11.50;99.90
15241;DHT22;7723;52.170;9.978;2023-05-10T03:57:43;11.50;99.90
15241;DHT22;7723;52.170;9.978;2023-05-10T04:00:10;11.40;99.90
15241;DHT22;7723;52.170;9.978;2023-05-10T04:02:39;11.60;99.90
15241;DHT22;7723;52.170;9.978;2023-05-10T04:05:07;11.70;99.90
15241;DHT22;7723;52.170;9.978;2023-05-10T04:07:34;11.80;99.90
15241;DHT22;7723;52.170;9.978;2023-05-10T04:10:01;11.70;99.90
15241;DHT22;7723;52.170;9.978;2023-05-10T04:12:28;11.60;99.90
15241;DHT22;7723;52.170;9.978;2023-05-10T04:14:56;11.60;99.90
15241;DHT22;7723;52.170;9.978;2023-05-10T04:17:23;11.50;99.90
15241;DHT22;7723;52.170;9.978;2023-05-10T04:19:51;11.40;99.90
15241;DHT22;7723;52.170;9.978;2023-05-10T04:22:20;11.40;99.90
15241;DHT22;7723;52.170;9.978;2023-05-10T04:24:47;11.50;99.90
15241;DHT22;7723;52.170;9.978;2023-05-10T04:27:14;11.50;99.90
15241;DHT22;7723;52.170;9.978;2023-05-10T04:29:41;11.50;99.90
15241;DHT22;7723;52.170;9.978;2023-05-10T04:32:08;11.50;99.90
15241;DHT22;7723;52.170;9.978;2023-05-10T04:34:36;11.50;99.90
15241;DHT22;7723;52.170;9.978;2023-05-10T04:37:05;11.50;99.90
15241;DHT22;7723;52.170;9.978;2023-05-10T04:39:33;11.60;99.90
15241;DHT22;7723;52.170;9.978;2023-05-10T04:42:00;11.60;99.90
15241;DHT22;7723;52.170;9.978;2023-05-10T04:44:29;11.70;99.90
15241;DHT22;7723;52.170;9.978;2023-05-10T04:46:56;11.80;99.90
15241;DHT22;7723;52.170;9.978;2023-05-10T04:49:23;11.70;99.90
15241;DHT22;7723;52.170;9.978;2023-05-10T04:51:50;11.70;99.90
15241;DHT22;7723;52.170;9.978;2023-05-10T04:54:19;11.70;99.90
15241;DHT22;7723;52.170;9.978;2023-05-10T04:56:46;11.60;99.90
15241;DHT22;7723;52.170;9.978;2023-05-10T04:59:13;11.60;99.90
15241;DHT22;7723;52.170;9.978;2023-05-10T05:01:40;11.70;99.90
15241;DHT22;7723;52.170;9.978;2023-05-10T05:04:07;11.80;99.90
15241;DHT22;7723;52.170;9.978;2023-05-10T05:06:34;12.00;99.90
15241;DHT22;7723;52.170;9.978;2023-05-10T05:09:01;12.10;99.90
15241;DHT22;7723;52.170;9.978;2023-05-10T05:11:30;12.20;99.90
15241;DHT22;7723;52.170;9.978;2023-05-10T05:13:57;12.20;99.90
15241;DHT22;7723;52.170;9.978;2023-05-10T05:16:25;12.20;99.90
15241;DHT22;7723;52.170;9.978;2023-05-10T05:18:53;12.20;99.90
15241;DHT22;7723;52.170;9.978;2023-05-10T05:21:20;12.20;99.90
15241;DHT22;7723;52.170;9.978;2023-05-10T05:23:47;12.20;99.90
15241;DHT22;7723;52.170;9.978;2023-05-10T05:26:15;12.20;99.90
15241;DHT22;7723;52.170;9.978;2023-05-10T05:28:43;12.20;99.90
15241;DHT22;7723;52.170;9.978;2023-05-10T05:31:10;12.20;99.90
15241;DHT22;7723;52.170;9.978;2023-05-10T05:33:38;12.20;99.90
15241;DHT22;7723;52.170;9.978;2023-05-10T05:36:05;12.20;99.90
15241;DHT22;7723;52.170;9.978;2023-05-10T05:38:35;12.20;99.90
15241;DHT22;7723;52.170;9.978;2023-05-10T05:41:02;12.20;99.90
15241;DHT22;7723;52.170;9.978;2023-05-10T05:43:29;12.30;99.90
15241;DHT22;7723;52.170;9.978;2023-05-10T05:45:58;12.30;99.90
15241;DHT22;7723;52.170;9.978;2023-05-10T05:48:25;12.20;99.90
15241;DHT22;7723;52.170;9.978;2023-05-10T05:50:54;12.20;99.90
15241;DHT22;7723;52.170;9.978;2023-05-10T05:53:22;12.20;99.90
15241;DHT22;7723;52.170;9.978;2023-05-10T05:55:52;12.30;99.90
15241;DHT22;7723;52.170;9.978;2023-05-10T05:58:20;12.20;99.90
15241;DHT22;7723;52.170;9.978;2023-05-10T06:00:48;12.20;99.90
15241;DHT22;7723;52.170;9.978;2023-05-10T06:03:16;12.20;99.90
15241;DHT22;7723;52.170;9.978;2023-05-10T06:05:43;12.20;99.90
15241;DHT22;7723;52.170;9.978;2023-05-10T06:08:10;12.20;99.90
15241;DHT22;7723;52.170;9.978;2023-05-10T06:10:37;12.20;99.90
15241;DHT22;7723;52.170;9.978;2023-05-10T06:13:05;12.30;99.90
15241;DHT22;7723;52.170;9.978;2023-05-10T06:15:32;12.40;99.90
15241;DHT22;7723;52.170;9.978;2023-05-10T06:18:00;12.30;99.90
15241;DHT22;7723;52.170;9.978;2023-05-10T06:20:28;12.40;99.90
15241;DHT22;7723;52.170;9.978;2023-05-10T06:22:57;12.50;99.90
15241;DHT22;7723;52.170;9.978;2023-05-10T06:25:24;12.40;99.90
15241;DHT22;7723;52.170;9.978;2023-05-10T06:27:51;12.50;99.90
15241;DHT22;7723;52.170;9.978;2023-05-10T06:30:23;12.50;99.90
15241;DHT22;7723;52.170;9.978;2023-05-10T06:32:53;12.50;99.90
15241;DHT22;7723;52.170;9.978;2023-05-10T06:35:20;12.60;99.90
15241;DHT22;7723;52.170;9.978;2023-05-10T06:37:49;12.60;99.90
15241;DHT22;7723;52.170;9.978;2023-05-10T06:40:16;12.70;99.90
15241;DHT22;7723;52.170;9.978;2023-05-10T06:42:43;12.60;99.90
15241;DHT22;7723;52.170;9.978;2023-05-10T06:45:12;12.70;99.90
15241;DHT22;7723;52.170;9.978;2023-05-10T06:47:40;12.80;99.90
15241;DHT22;7723;52.170;9.978;2023-05-10T06:50:08;12.80;99.90
15241;DHT22;7723;52.170;9.978;2023-05-10T06:52:35;12.90;99.90
15241;DHT22;7723;52.170;9.978;2023-05-10T06:55:04;12.90;99.90
15241;DHT22;7723;52.170;9.978;2023-05-10T06:57:32;13.00;99.90
15241;DHT22;7723;52.170;9.978;2023-05-10T06:59:59;13.00;99.90
15241;DHT22;7723;52.170;9.978;2023-05-10T07:02:26;13.00;99.90
15241;DHT22;7723;52.170;9.978;2023-05-10T07:04:53;13.00;99.90
15241;DHT22;7723;52.170;9.978;2023-05-10T07:07:20;13.00;99.90
15241;DHT22;7723;52.170;9.978;2023-05-10T07:09:47;13.20;99.90
15241;DHT22;7723;52.170;9.978;2023-05-10T07:12:17;13.20;99.90
15241;DHT22;7723;52.170;9.978;2023-05-10T07:14:44;13.10;99.90
15241;DHT22;7723;52.170;9.978;2023-05-10T07:17:11;13.20;99.90
15241;DHT22;7723;52.170;9.978;2023-05-10T07:19:38;13.30;99.90
15241;DHT22;7723;52.170;9.978;2023-05-10T07:22:05;13.30;99.90
15241;DHT22;7723;52.170;9.978;2023-05-10T07:24:33;13.30;99.90
15241;DHT22;7723;52.170;9.978;2023-05-10T07:27:00;13.30;99.90
15241;DHT22;7723;52.170;9.978;2023-05-10T07:29:28;13.40;99.90
15241;DHT22;7723;52.170;9.978;2023-05-10T07:31:56;13.50;99.90
15241;DHT22;7723;52.170;9.978;2023-05-10T07:34:23;13.60;99.90
15241;DHT22;7723;52.170;9.978;2023-05-10T07:36:50;13.60;99.90
15241;DHT22;7723;52.170;9.978;2023-05-10T07:39:17;13.80;99.90
15241;DHT22;7723;52.170;9.978;2023-05-10T07:41:44;13.80;99.90
15241;DHT22;7723;52.170;9.978;2023-05-10T07:44:11;13.80;99.90
15241;DHT22;7723;52.170;9.978;2023-05-10T07:46:39;13.80;99.90
15241;DHT22;7723;52.170;9.978;2023-05-10T07:49:07;14.00;99.90
15241;DHT22;7723;52.170;9.978;2023-05-10T07:51:34;14.00;99.90
15241;DHT22;7723;52.170;9.978;2023-05-10T07:54:01;14.10;99.90
15241;DHT22;7723;52.170;9.978;2023-05-10T07:56:29;14.10;99.90
15241;DHT22;7723;52.170;9.978;2023-05-10T07:58:57;14.10;99.90
15241;DHT22;7723;52.170;9.978;2023-05-10T08:01:25;14.10;99.90
15241;DHT22;7723;52.170;9.978;2023-05-10T08:03:54;14.20;99.90
15241;DHT22;7723;52.170;9.978;2023-05-10T08:06:21;14.10;99.90
15241;DHT22;7723;52.170;9.978;2023-05-10T08:08:49;14.10;99.90
15241;DHT22;7723;52.170;9.978;2023-05-10T08:11:17;14.00;99.90
15241;DHT22;7723;52.170;9.978;2023-05-10T08:13:44;14.00;99.90
15241;DHT22;7723;52.170;9.978;2023-05-10T08:16:12;14.10;99.90
15241;DHT22;7723;52.170;9.978;2023-05-10T08:18:39;14.00;99.90
15241;DHT22;7723;52.170;9.978;2023-05-10T08:21:08;14.10;99.90
15241;DHT22;7723;52.170;9.978;2023-05-10T08:23:36;14.10;99.90
15241;DHT22;7723;52.170;9.978;2023-05-10T08:26:04;14.10;99.90
15241;DHT22;7723;52.170;9.978;2023-05-10T08:28:31;14.10;99.90
15241;DHT22;7723;52.170;9.978;2023-05-10T08:30:58;14.00;99.90
15241;DHT22;7723;52.170;9.978;2023-05-10T08:33:25;14.00;99.90
15241;DHT22;7723;52.170;9.978;2023-05-10T08:35:52;14.10;99.90
15241;DHT22;7723;52.170;9.978;2023-05-10T08:38:21;13.90;99.90
15241;DHT22;7723;52.170;9.978;2023-05-10T08:40:49;13.90;99.90
15241;DHT22;7723;52.170;9.978;2023-05-10T08:43:16;13.90;99.90
15241;DHT22;7723;52.170;9.978;2023-05-10T08:45:44;13.90;99.90
15241;DHT22;7723;52.170;9.978;2023-05-10T08:48:13;14.00;99.90
15241;DHT22;7723;52.170;9.978;2023-05-10T08:50:41;14.10;99.90
15241;DHT22;7723;52.170;9.978;2023-05-10T08:53:11;14.20;99.90
15241;DHT22;7723;52.170;9.978;2023-05-10T08:55:40;14.30;99.90
15241;DHT22;7723;52.170;9.978;2023-05-10T08:58:08;14.40;99.90
15241;DHT22;7723;52.170;9.978;2023-05-10T09:00:36;14.50;99.90
15241;DHT22;7723;52.170;9.978;2023-05-10T09:03:04;14.60;99.90
15241;DHT22;7723;52.170;9.978;2023-05-10T09:05:32;14.80;99.90
15241;DHT22;7723;52.170;9.978;2023-05-10T09:07:59;14.80;99.90
15241;DHT22;7723;52.170;9.978;2023-05-10T09:10:26;14.80;99.90
15241;DHT22;7723;52.170;9.978;2023-05-10T09:12:56;14.70;99.90
15241;DHT22;7723;52.170;9.978;2023-05-10T09:15:23;14.80;99.90
15241;DHT22;7723;52.170;9.978;2023-05-10T09:17:50;14.90;99.90
15241;DHT22;7723;52.170;9.978;2023-05-10T09:20:17;15.00;99.90
15241;DHT22;7723;52.170;9.978;2023-05-10T09:22:44;14.90;99.90
15241;DHT22;7723;52.170;9.978;2023-05-10T09:25:13;14.90;99.90
15241;DHT22;7723;52.170;9.978;2023-05-10T09:27:41;14.80;99.90
15241;DHT22;7723;52.170;9.978;2023-05-10T09:30:15;14.70;99.90
15241;DHT22;7723;52.170;9.978;2023-05-10T09:32:44;14.80;99.90
15241;DHT22;7723;52.170;9.978;2023-05-10T09:35:13;14.80;99.90
15241;DHT22;7723;52.170;9.978;2023-05-10T09:37:42;14.70;99.90
15241;DHT22;7723;52.170;9.978;2023-05-10T09:40:12;14.80;99.90
15241;DHT22;7723;52.170;9.978;2023-05-10T09:42:41;14.80;99.90
15241;DHT22;7723;52.170;9.978;2023-05-10T09:45:10;14.90;99.90
15241;DHT22;7723;52.170;9.978;2023-05-10T09:47:38;14.80;99.90
15241;DHT22;7723;52.170;9.978;2023-05-10T09:50:06;14.90;99.90
15241;DHT22;7723;52.170;9.978;2023-05-10T09:52:47;15.00;99.90
15241;DHT22;7723;52.170;9.978;2023-05-10T09:55:14;14.90;99.90
15241;DHT22;7723;52.170;9.978;2023-05-10T09:57:42;15.10;99.90
15241;DHT22;7723;52.170;9.978;2023-05-10T10:00:11;15.20;99.90
15241;DHT22;7723;52.170;9.978;2023-05-10T10:02:42;15.30;99.90
15241;DHT22;7723;52.170;9.978;2023-05-10T10:05:09;15.50;99.90
15241;DHT22;7723;52.170;9.978;2023-05-10T10:07:38;15.70;99.90
15241;DHT22;7723;52.170;9.978;2023-05-10T10:10:07;15.60;99.90
15241;DHT22;7723;52.170;9.978;2023-05-10T10:12:38;15.50;99.90
15241;DHT22;7723;52.170;9.978;2023-05-10T10:15:07;15.50;99.90
15241;DHT22;7723;52.170;9.978;2023-05-10T10:17:37;15.50;99.90
15241;DHT22;7723;52.170;9.978;2023-05-10T10:20:06;15.50;99.90
15241;DHT22;7723;52.170;9.978;2023-05-10T10:22:34;15.80;99.90
15241;DHT22;7723;52.170;9.978;2023-05-10T10:25:02;15.80;99.90
15241;DHT22;7723;52.170;9.978;2023-05-10T10:27:37;15.90;99.90
15241;DHT22;7723;52.170;9.978;2023-05-10T10:30:15;16.00;99.90
15241;DHT22;7723;52.170;9.978;2023-05-10T10:32:59;16.10;99.90
15241;DHT22;7723;52.170;9.978;2023-05-10T10:35:28;16.20;99.90
15241;DHT22;7723;52.170;9.978;2023-05-10T10:37:56;16.10;99.90
15241;DHT22;7723;52.170;9.978;2023-05-10T10:40:25;16.20;99.90
15241;DHT22;7723;52.170;9.978;2023-05-10T10:42:52;16.10;99.90
15241;DHT22;7723;52.170;9.978;2023-05-10T10:45:21;16.30;99.90
15241;DHT22;7723;52.170;9.978;2023-05-10T10:50:44;16.60;99.90
15241;DHT22;7723;52.170;9.978;2023-05-10T10:53:11;16.60;99.90
15241;DHT22;7723;52.170;9.978;2023-05-10T10:55:46;16.60;99.90
15241;DHT22;7723;52.170;9.978;2023-05-10T10:58:29;16.50;99.90
15241;DHT22;7723;52.170;9.978;2023-05-10T11:01:10;16.60;99.90
15241;DHT22;7723;52.170;9.978;2023-05-10T11:03:39;16.20;99.90
15241;DHT22;7723;52.170;9.978;2023-05-10T11:06:06;16.90;99.90
15241;DHT22;7723;52.170;9.978;2023-05-10T11:08:40;16.80;99.90
15241;DHT22;7723;52.170;9.978;2023-05-10T11:11:08;16.70;99.90
15241;DHT22;7723;52.170;9.978;2023-05-10T11:13:39;16.70;99.90
15241;DHT22;7723;52.170;9.978;2023-05-10T11:16:11;16.70;99.90
15241;DHT22;7723;52.170;9.978;2023-05-10T11:18:40;16.70;99.90
15241;DHT22;7723;52.170;9.978;2023-05-10T11:21:09;16.90;99.90
15241;DHT22;7723;52.170;9.978;2023-05-10T11:23:49;17.00;99.90
15241;DHT22;7723;52.170;9.978;2023-05-10T11:26:16;17.20;99.90
15241;DHT22;7723;52.170;9.978;2023-05-10T11:28:44;17.30;99.90
15241;DHT22;7723;52.170;9.978;2023-05-10T11:31:13;17.70;99.90
15241;DHT22;7723;52.170;9.978;2023-05-10T11:33:46;17.90;99.90
15241;DHT22;7723;52.170;9.978;2023-05-10T11:36:15;17.90;99.90
15241;DHT22;7723;52.170;9.978;2023-05-10T11:38:43;18.00;99.90
15241;DHT22;7723;52.170;9.978;2023-05-10T11:41:10;18.20;99.90
15241;DHT22;7723;52.170;9.978;2023-05-10T11:43:39;18.40;99.90
15241;DHT22;7723;52.170;9.978;2023-05-10T11:46:07;18.50;99.90
15241;DHT22;7723;52.170;9.978;2023-05-10T11:48:34;18.60;99.90
15241;DHT22;7723;52.170;9.978;2023-05-10T11:51:03;18.80;99.90
15241;DHT22;7723;52.170;9.978;2023-05-10T11:53:31;18.80;99.90
15241;DHT22;7723;52.170;9.978;2023-05-10T11:56:03;19.30;99.90
15241;DHT22;7723;52.170;9.978;2023-05-10T11:58:31;19.70;99.90
15241;DHT22;7723;52.170;9.978;2023-05-10T12:00:58;19.70;99.90
15241;DHT22;7723;52.170;9.978;2023-05-10T12:03:26;19.80;99.90
15241;DHT22;7723;52.170;9.978;2023-05-10T12:05:54;19.80;99.90
15241;DHT22;7723;52.170;9.978;2023-05-10T12:08:24;19.80;69.90
15241;DHT22;7723;52.170;9.978;2023-05-10T12:10:51;19.40;97.20
15241;DHT22;7723;52.170;9.978;2023-05-10T12:13:19;19.20;1.00
15241;DHT22;7723;52.170;9.978;2023-05-10T12:15:46;19.20;1.00
15241;DHT22;7723;52.170;9.978;2023-05-10T12:18:14;19.40;1.00
15241;DHT22;7723;52.170;9.978;2023-05-10T12:20:41;19.50;1.00
15241;DHT22;7723;52.170;9.978;2023-05-10T12:23:09;19.50;21.10
15241;DHT22;7723;52.170;9.978;2023-05-10T12:25:38;19.70;1.00
15241;DHT22;7723;52.170;9.978;2023-05-10T12:28:08;19.80;1.00
15241;DHT22;7723;52.170;9.978;2023-05-10T12:30:36;19.60;1.00
15241;DHT22;7723;52.170;9.978;2023-05-10T12:33:09;19.40;1.00
15241;DHT22;7723;52.170;9.978;2023-05-10T12:35:45;19.20;1.00
15241;DHT22;7723;52.170;9.978;2023-05-10T12:38:26;18.90;1.00
15241;DHT22;7723;52.170;9.978;2023-05-10T12:40:56;18.50;5.40
15241;DHT22;7723;52.170;9.978;2023-05-10T12:43:23;17.70;69.80
15241;DHT22;7723;52.170;9.978;2023-05-10T12:45:51;17.40;99.90
15241;DHT22;7723;52.170;9.978;2023-05-10T12:48:18;17.10;99.90
15241;DHT22;7723;52.170;9.978;2023-05-10T12:50:45;17.00;99.90
15241;DHT22;7723;52.170;9.978;2023-05-10T12:53:13;16.60;99.90
15241;DHT22;7723;52.170;9.978;2023-05-10T12:55:45;16.40;99.90
15241;DHT22;7723;52.170;9.978;2023-05-10T12:58:14;16.20;99.90
15241;DHT22;7723;52.170;9.978;2023-05-10T13:00:41;16.00;99.90
15241;DHT22;7723;52.170;9.978;2023-05-10T13:03:09;16.00;99.90
15241;DHT22;7723;52.170;9.978;2023-05-10T13:05:37;16.10;99.90
15241;DHT22;7723;52.170;9.978;2023-05-10T13:08:04;16.30;99.90
15241;DHT22;7723;52.170;9.978;2023-05-10T13:10:31;16.50;99.90
15241;DHT22;7723;52.170;9.978;2023-05-10T13:12:59;16.60;99.90
15241;DHT22;7723;52.170;9.978;2023-05-10T13:15:29;16.90;99.90
15241;DHT22;7723;52.170;9.978;2023-05-10T13:17:56;16.70;99.90
15241;DHT22;7723;52.170;9.978;2023-05-10T13:20:24;16.80;99.90
15241;DHT22;7723;52.170;9.978;2023-05-10T13:22:51;16.90;99.90
15241;DHT22;7723;52.170;9.978;2023-05-10T13:25:18;16.80;99.90
15241;DHT22;7723;52.170;9.978;2023-05-10T13:27:45;16.90;99.90
15241;DHT22;7723;52.170;9.978;2023-05-10T13:30:13;17.00;99.90
15241;DHT22;7723;52.170;9.978;2023-05-10T13:32:41;16.90;99.90
15241;DHT22;7723;52.170;9.978;2023-05-10T13:35:09;17.10;99.90
15241;DHT22;7723;52.170;9.978;2023-05-10T13:37:36;17.30;99.90
15241;DHT22;7723;52.170;9.978;2023-05-10T13:40:05;17.30;99.90
15241;DHT22;7723;52.170;9.978;2023-05-10T13:42:32;17.30;99.90
15241;DHT22;7723;52.170;9.978;2023-05-10T13:45:00;17.50;99.90
15241;DHT22;7723;52.170;9.978;2023-05-10T13:47:27;17.80;99.90
15241;DHT22;7723;52.170;9.978;2023-05-10T13:49:56;17.50;99.90
15241;DHT22;7723;52.170;9.978;2023-05-10T13:52:23;17.70;99.90
15241;DHT22;7723;52.170;9.978;2023-05-10T13:54:50;17.70;99.90
15241;DHT22;7723;52.170;9.978;2023-05-10T13:57:20;17.60;99.90
15241;DHT22;7723;52.170;9.978;2023-05-10T13:59:47;17.20;99.90
15241;DHT22;7723;52.170;9.978;2023-05-10T14:02:14;17.30;99.90
15241;DHT22;7723;52.170;9.978;2023-05-10T14:04:41;17.40;99.90
15241;DHT22;7723;52.170;9.978;2023-05-10T14:07:10;17.60;99.90
15241;DHT22;7723;52.170;9.978;2023-05-10T14:09:37;17.70;99.90
15241;DHT22;7723;52.170;9.978;2023-05-10T14:12:04;17.80;99.90
15241;DHT22;7723;52.170;9.978;2023-05-10T14:14:31;17.90;99.90
15241;DHT22;7723;52.170;9.978;2023-05-10T14:16:58;17.70;99.90
15241;DHT22;7723;52.170;9.978;2023-05-10T14:19:26;17.60;99.90
15241;DHT22;7723;52.170;9.978;2023-05-10T14:21:56;17.40;99.90
15241;DHT22;7723;52.170;9.978;2023-05-10T14:24:24;17.30;99.90
15241;DHT22;7723;52.170;9.978;2023-05-10T14:26:51;17.10;99.90
15241;DHT22;7723;52.170;9.978;2023-05-10T14:29:19;17.30;99.90
15241;DHT22;7723;52.170;9.978;2023-05-10T14:31:46;17.70;99.90
15241;DHT22;7723;52.170;9.978;2023-05-10T14:34:13;17.70;99.90
15241;DHT22;7723;52.170;9.978;2023-05-10T14:36:40;17.80;99.90
15241;DHT22;7723;52.170;9.978;2023-05-10T14:39:08;17.90;99.90
15241;DHT22;7723;52.170;9.978;2023-05-10T14:41:37;17.80;99.90
15241;DHT22;7723;52.170;9.978;2023-05-10T14:44:06;18.00;99.90
15241;DHT22;7723;52.170;9.978;2023-05-10T14:46:33;18.00;99.90
15241;DHT22;7723;52.170;9.978;2023-05-10T14:49:01;17.70;99.90
15241;DHT22;7723;52.170;9.978;2023-05-10T14:51:28;17.90;99.90
15241;DHT22;7723;52.170;9.978;2023-05-10T14:53:55;17.90;99.90
15241;DHT22;7723;52.170;9.978;2023-05-10T14:56:22;18.10;99.90
15241;DHT22;7723;52.170;9.978;2023-05-10T14:58:52;17.90;99.90
15241;DHT22;7723;52.170;9.978;2023-05-10T15:01:19;18.00;99.90
15241;DHT22;7723;52.170;9.978;2023-05-10T15:03:47;18.20;99.90
15241;DHT22;7723;52.170;9.978;2023-05-10T15:06:14;18.10;99.90
15241;DHT22;7723;52.170;9.978;2023-05-10T15:08:41;17.90;99.90
15241;DHT22;7723;52.170;9.978;2023-05-10T15:11:09;17.70;99.90
15241;DHT22;7723;52.170;9.978;2023-05-10T15:13:36;17.70;99.90
15241;DHT22;7723;52.170;9.978;2023-05-10T15:16:04;17.70;99.90
15241;DHT22;7723;52.170;9.978;2023-05-10T15:18:31;17.80;99.90
15241;DHT22;7723;52.170;9.978;2023-05-10T15:20:58;17.80;99.90
15241;DHT22;7723;52.170;9.978;2023-05-10T15:23:26;17.60;99.90
15241;DHT22;7723;52.170;9.978;2023-05-10T15:25:54;17.40;99.90
15241;DHT22;7723;52.170;9.978;2023-05-10T15:28:21;17.40;99.90
15241;DHT22;7723;52.170;9.978;2023-05-10T15:30:48;17.50;99.90
15241;DHT22;7723;52.170;9.978;2023-05-10T15:33:17;17.60;99.90
15241;DHT22;7723;52.170;9.978;2023-05-10T15:35:44;17.60;99.90
15241;DHT22;7723;52.170;9.978;2023-05-10T15:38:11;17.40;99.90
15241;DHT22;7723;52.170;9.978;2023-05-10T15:40:38;17.50;99.90
15241;DHT22;7723;52.170;9.978;2023-05-10T15:43:06;17.60;99.90
15241;DHT22;7723;52.170;9.978;2023-05-10T15:45:33;17.70;99.90
15241;DHT22;7723;52.170;9.978;2023-05-10T15:48:00;17.70;99.90
15241;DHT22;7723;52.170;9.978;2023-05-10T15:50:28;17.50;99.90
15241;DHT22;7723;52.170;9.978;2023-05-10T15:52:55;17.30;99.90
15241;DHT22;7723;52.170;9.978;2023-05-10T15:55:22;17.10;99.90
15241;DHT22;7723;52.170;9.978;2023-05-10T15:57:49;17.10;99.90
15241;DHT22;7723;52.170;9.978;2023-05-10T16:00:17;17.00;99.90
15241;DHT22;7723;52.170;9.978;2023-05-10T16:02:48;17.00;99.90
15241;DHT22;7723;52.170;9.978;2023-05-10T16:05:15;17.00;99.90